Aviation Digital Data Service (ADDS)

Output produced by METARs form (2340 UTC 25 February 2018)
found at http://www.aviationweather.gov/adds/metars/
 
MPPA 252300Z 01007KT 9999 SCT018 29/// Q1011
TAF MPPA 252200Z 2600/2706 36008KT 9999 SCT020 
     TEMPO 2606/2610 34003KT
       
MPBO 252300Z 01004KT 9000 SCT018 SCT090 Q1015
MPDA 252300Z 20005KT 9999 SCT014 30/21 Q1009
TAF MPDA 252200Z 2600/2712 02008KT 9999 FEW020 
     TEMPO 2618/2621 18008KT
       
MPMG 252300Z 34008KT 310V010 9999 FEW018 29/21 Q1011 NOSIG RMK BIRD HAZARD SE
TAF MPMG 252200Z 2600/2712 33008KT 9999 SCT020 
     TEMPO 2608/2612 00000KT 
     TEMPO 2618/2621 17004KT
       
MPTO 252300Z 01010KT 9999 FEW020 29/20 Q1011 NOSIG
TAF MPTO 252200Z 2600/2706 04006KT 9999 SCT020 
     TEMPO 2604/2608 00000KT 
     TEMPO 2608/2612 03006KT